チュニス の空港の天気 - METARとTAF

チュニス・カルタゴ国際空港 ( DTTA / TUN ) - チュニジア チュニス
飛行場実況気象(Metar)
観測時間07/29 02:30 CET (07/29 01:30 UTC)
風向・風速南 2m/s
視程10km以上
天気現象
なし
気温28℃
湿度28%
気圧1013hPa
METARDTTA 290130Z 18004KT CAVOK 28/08 Q1013
過去の天気等 Google飛行場航空写真 Wunderground天気予報

過去48時間のMETAR

飛行場予報(TAF)
発表時間: 7/29 00:00 CET (7/28 23:00 UTC)
予報対象時間: 29日1時 CET ~ 30日1時 CET
風向・風速南南西 3m/s
視程10km以上
なし
29日11時 CET ~ 29日13時 CET に徐々に
風向・風速南 5m/s
29日13時 CET ~ 29日15時 CET に徐々に
風向・風速北北東 6m/s
TAF DTTA 282300Z 2900/2924 20005KT CAVOK
BECMG 2910/2912 19010KT
BECMG 2912/2914 03012KT